createdAt,value
2023-05-04T00:02:11.190Z,105.74
2023-05-04T00:04:37.912Z,105.23
2023-05-04T00:07:04.658Z,105.40
2023-05-04T00:09:31.983Z,105.47
2023-05-04T00:11:58.735Z,105.34
2023-05-04T00:14:25.484Z,105.51
2023-05-04T00:16:52.669Z,105.72
2023-05-04T00:19:19.698Z,105.62
2023-05-04T00:21:46.521Z,104.80
2023-05-04T00:24:13.275Z,104.82
2023-05-04T00:26:40.045Z,104.54
2023-05-04T00:29:06.816Z,103.75
2023-05-04T00:31:33.586Z,103.66
2023-05-04T00:34:00.670Z,103.59
2023-05-04T00:36:27.363Z,104.09
2023-05-04T00:38:54.918Z,104.35
2023-05-04T00:41:22.168Z,104.27
2023-05-04T00:43:49.561Z,104.27
2023-05-04T00:46:16.576Z,104.52
2023-05-04T00:48:47.103Z,105.34
2023-05-04T00:51:15.239Z,105.47
2023-05-04T00:53:42.145Z,105.08
2023-05-04T00:56:09.107Z,104.84
2023-05-04T00:58:35.862Z,105.37
2023-05-04T01:01:03.996Z,106.28
2023-05-04T01:03:31.864Z,105.82
2023-05-04T01:06:16.661Z,105.06
2023-05-04T01:08:52.192Z,106.22
2023-05-04T01:11:22.825Z,106.20
2023-05-04T01:13:51.357Z,106.06
2023-05-04T01:16:18.252Z,105.68
2023-05-04T01:18:44.984Z,105.76
2023-05-04T01:21:11.879Z,106.29
2023-05-04T01:23:38.700Z,107.11
2023-05-04T01:26:24.306Z,107.85
2023-05-04T01:29:18.265Z,107.73
2023-05-04T01:31:46.710Z,108.30
2023-05-04T01:34:14.382Z,107.91
2023-05-04T01:36:41.697Z,107.67
2023-05-04T01:39:08.488Z,108.33
2023-05-04T01:41:36.531Z,108.09
2023-05-04T01:44:04.365Z,107.92
2023-05-04T01:46:31.643Z,107.79
2023-05-04T01:48:58.602Z,108.06
2023-05-04T01:51:25.353Z,107.40
2023-05-04T01:53:52.230Z,107.33
2023-05-04T01:56:19.465Z,107.91
2023-05-04T01:58:46.158Z,107.79
2023-05-04T02:01:13.003Z,108.01
2023-05-04T02:03:40.928Z,108.52
2023-05-04T02:06:08.476Z,107.53
2023-05-04T02:08:35.532Z,107.27
2023-05-04T02:11:02.246Z,107.62
2023-05-04T02:13:29.003Z,108.57
2023-05-04T02:15:56.183Z,108.76
2023-05-04T02:18:23.146Z,109.08
2023-05-04T02:20:49.832Z,108.24
2023-05-04T02:23:16.596Z,108.45
2023-05-04T02:25:43.358Z,109.01
2023-05-04T02:28:10.222Z,109.00
2023-05-04T02:30:37.332Z,109.03
2023-05-04T02:33:04.497Z,109.23
2023-05-04T02:35:31.344Z,109.28
2023-05-04T02:37:58.198Z,108.48
2023-05-04T02:40:24.992Z,108.06
2023-05-04T02:42:51.915Z,108.25
2023-05-04T02:45:18.810Z,107.86
2023-05-04T02:47:45.727Z,107.85
2023-05-04T02:50:12.677Z,108.30
2023-05-04T02:52:39.454Z,109.42
2023-05-04T02:55:06.713Z,109.84
2023-05-04T02:57:33.534Z,110.17
2023-05-04T03:00:00.231Z,109.88
2023-05-04T03:02:27.024Z,110.01
2023-05-04T03:04:53.906Z,109.52
2023-05-04T03:07:20.807Z,109.80
2023-05-04T03:10:02.784Z,109.85
2023-05-04T03:12:30.060Z,109.71
2023-05-04T03:14:56.898Z,109.55
2023-05-04T03:17:23.687Z,109.57
2023-05-04T03:19:50.470Z,110.02
2023-05-04T03:22:17.144Z,110.08
2023-05-04T03:24:43.900Z,109.91
2023-05-04T03:27:10.671Z,109.66
2023-05-04T03:29:37.450Z,110.37
2023-05-04T03:32:04.377Z,110.49
2023-05-04T03:34:31.457Z,110.26
2023-05-04T03:36:58.517Z,110.17
2023-05-04T03:39:25.250Z,110.87
2023-05-04T03:41:54.819Z,111.34
2023-05-04T03:44:21.694Z,110.22
2023-05-04T03:46:48.437Z,110.22
2023-05-04T03:49:15.270Z,110.50
2023-05-04T03:51:42.408Z,110.29
2023-05-04T03:54:09.215Z,110.11
2023-05-04T03:56:35.886Z,110.46
2023-05-04T03:59:02.707Z,110.95
2023-05-04T04:01:36.521Z,111.43
2023-05-04T04:04:03.832Z,111.55
2023-05-04T04:06:31.147Z,111.48
2023-05-04T04:08:57.845Z,110.98
2023-05-04T04:11:24.599Z,110.66
2023-05-04T04:13:51.399Z,110.72
2023-05-04T04:16:20.011Z,110.68
2023-05-04T04:18:47.126Z,110.46
2023-05-04T04:21:13.990Z,110.29
2023-05-04T04:23:41.270Z,109.92
2023-05-04T04:26:08.001Z,110.13
2023-05-04T04:28:35.121Z,110.09
2023-05-04T04:31:03.289Z,110.62
2023-05-04T04:33:30.228Z,110.38
2023-05-04T04:35:56.968Z,110.68
2023-05-04T04:38:23.704Z,110.44
2023-05-04T04:40:50.660Z,110.33
2023-05-04T04:43:17.377Z,109.55
2023-05-04T04:45:45.294Z,108.01
2023-05-04T04:48:12.855Z,106.60
2023-05-04T04:50:40.237Z,106.21
2023-05-04T04:53:07.056Z,104.66
2023-05-04T04:55:34.819Z,104.17
2023-05-04T04:58:01.706Z,104.10
2023-05-04T05:00:28.686Z,103.47
2023-05-04T05:02:55.655Z,102.53
2023-05-04T05:05:22.459Z,102.13
2023-05-04T05:07:49.245Z,102.09
2023-05-04T05:10:16.179Z,102.25
2023-05-04T05:12:42.973Z,101.57
2023-05-04T05:15:10.178Z,100.16
2023-05-04T05:17:37.603Z,97.81
2023-05-04T05:20:10.690Z,96.15
2023-05-04T05:22:41.858Z,95.73
2023-05-04T05:25:08.793Z,96.65
2023-05-04T05:27:36.730Z,94.72
2023-05-04T05:30:05.862Z,93.72
2023-05-04T05:32:33.072Z,93.66
2023-05-04T05:34:59.932Z,92.43
2023-05-04T05:37:27.667Z,91.80
2023-05-04T05:39:54.472Z,93.69
2023-05-04T05:42:21.303Z,93.14
2023-05-04T05:44:48.042Z,92.43
2023-05-04T05:47:15.391Z,90.50
2023-05-04T05:49:44.160Z,87.08
2023-05-04T05:52:12.271Z,85.10
2023-05-04T05:54:40.185Z,83.45
2023-05-04T05:57:06.983Z,83.55
2023-05-04T05:59:33.909Z,83.11
2023-05-04T06:02:00.643Z,83.39
2023-05-04T06:04:27.379Z,82.91
2023-05-04T06:06:54.140Z,80.97
2023-05-04T06:09:21.120Z,81.30
2023-05-04T06:11:47.995Z,77.46
2023-05-04T06:14:14.713Z,77.44
2023-05-04T06:16:41.615Z,75.60
2023-05-04T06:19:08.562Z,74.15
2023-05-04T06:21:35.439Z,75.15
2023-05-04T06:24:02.260Z,69.52
2023-05-04T06:26:29.422Z,70.89
2023-05-04T06:28:56.078Z,64.95
2023-05-04T06:31:24.222Z,57.31
2023-05-04T06:33:51.086Z,54.16
2023-05-04T06:36:18.135Z,54.84
2023-05-04T06:38:44.832Z,54.13
2023-05-04T06:41:11.761Z,51.16
2023-05-04T06:43:42.268Z,52.82
2023-05-04T06:46:09.700Z,52.65
2023-05-04T06:48:36.768Z,51.26
2023-05-04T06:51:03.768Z,50.11
2023-05-04T06:53:30.784Z,48.87
2023-05-04T06:55:57.801Z,49.13
2023-05-04T06:58:25.888Z,51.98
2023-05-04T07:00:53.072Z,51.11
2023-05-04T07:03:20.079Z,48.08
2023-05-04T07:05:48.720Z,49.79
2023-05-04T07:08:15.406Z,49.78
2023-05-04T07:10:42.199Z,47.90
2023-05-04T07:13:09.681Z,47.67
2023-05-04T07:15:36.997Z,49.46
2023-05-04T07:18:03.945Z,45.48
2023-05-04T07:20:30.753Z,46.67
2023-05-04T07:22:57.581Z,47.18
2023-05-04T07:25:25.838Z,45.37
2023-05-04T07:27:52.964Z,47.03
2023-05-04T07:30:20.448Z,49.63
2023-05-04T07:32:47.283Z,50.85
2023-05-04T07:35:14.728Z,51.26
2023-05-04T07:37:41.591Z,51.90
2023-05-04T07:40:09.584Z,50.20
2023-05-04T07:42:36.529Z,49.46
2023-05-04T07:45:04.230Z,50.43
2023-05-04T07:47:30.994Z,52.04
2023-05-04T07:49:57.791Z,48.79
2023-05-04T07:52:24.594Z,49.01
2023-05-04T07:54:54.905Z,49.73
2023-05-04T07:57:21.894Z,52.75
2023-05-04T07:59:48.699Z,50.52
2023-05-04T08:02:15.846Z,50.27
2023-05-04T08:04:42.689Z,50.11
2023-05-04T08:07:09.420Z,51.02
2023-05-04T08:09:36.241Z,51.08
2023-05-04T08:12:04.524Z,48.90
2023-05-04T08:14:31.384Z,47.25
2023-05-04T08:16:58.128Z,47.86
2023-05-04T08:19:24.950Z,48.52
2023-05-04T08:21:51.643Z,47.71
2023-05-04T08:24:18.815Z,46.40
2023-05-04T08:30:45.427Z,45.72
2023-05-04T08:33:12.316Z,46.02
2023-05-04T08:35:39.192Z,45.19
2023-05-04T08:38:06.017Z,42.39
2023-05-04T08:40:33.732Z,45.10
2023-05-04T08:43:00.778Z,44.77
2023-05-04T08:45:29.043Z,46.54
2023-05-04T08:47:56.254Z,47.25
2023-05-04T08:50:23.449Z,46.54
2023-05-04T08:52:52.331Z,43.97
2023-05-04T08:55:19.925Z,43.15
2023-05-04T08:57:47.862Z,43.09
2023-05-04T09:00:17.833Z,45.53
2023-05-04T09:02:45.849Z,43.59
2023-05-04T09:05:13.490Z,43.61
2023-05-04T09:07:40.248Z,44.46
2023-05-04T09:10:07.933Z,43.90
2023-05-04T09:12:34.915Z,43.04
2023-05-04T09:15:05.893Z,45.37
2023-05-04T09:17:33.045Z,42.10
2023-05-04T09:20:03.785Z,41.02
2023-05-04T09:22:31.278Z,39.94
2023-05-04T09:25:07.456Z,40.41
2023-05-04T09:27:34.143Z,41.39
2023-05-04T09:30:00.874Z,42.13
2023-05-04T09:32:28.534Z,41.62
2023-05-04T09:34:55.250Z,41.05
2023-05-04T09:37:22.396Z,40.67
2023-05-04T09:39:58.207Z,39.06
2023-05-04T09:42:26.595Z,40.25
2023-05-04T09:45:04.292Z,37.72
2023-05-04T09:47:33.674Z,36.14
2023-05-04T09:50:20.153Z,35.21
2023-05-04T09:52:48.108Z,37.23
2023-05-04T09:55:16.870Z,36.81
2023-05-04T09:57:46.391Z,35.82
2023-05-04T10:00:16.156Z,31.86
2023-05-04T10:02:47.332Z,33.01
2023-05-04T10:05:18.419Z,33.11
2023-05-04T10:07:45.537Z,34.15
2023-05-04T10:10:14.789Z,35.63
2023-05-04T10:12:41.666Z,33.52
2023-05-04T10:15:10.268Z,34.03
2023-05-04T10:17:48.177Z,34.21
2023-05-04T10:20:54.986Z,35.20
2023-05-04T10:23:42.912Z,36.57
2023-05-04T10:26:35.491Z,37.47
2023-05-04T10:29:24.096Z,34.98
2023-05-04T10:31:52.715Z,36.65
2023-05-04T10:34:34.202Z,36.59
2023-05-04T10:37:02.975Z,35.89
2023-05-04T10:39:31.979Z,35.89
2023-05-04T10:42:08.562Z,36.23
2023-05-04T10:44:48.411Z,34.27
2023-05-04T10:47:15.749Z,33.22
2023-05-04T10:49:42.630Z,32.66
2023-05-04T10:52:13.766Z,33.55
2023-05-04T10:54:41.566Z,35.10
2023-05-04T10:57:11.029Z,40.72
2023-05-04T10:59:39.249Z,39.67
2023-05-04T11:02:06.783Z,39.73
2023-05-04T11:04:34.953Z,38.68
2023-05-04T11:07:06.376Z,39.15
2023-05-04T11:09:42.301Z,41.00
2023-05-04T11:12:10.701Z,38.78
2023-05-04T11:14:42.257Z,39.88
2023-05-04T11:17:26.884Z,39.11
2023-05-04T11:19:54.824Z,39.46
2023-05-04T11:22:21.933Z,38.63
2023-05-04T11:24:49.116Z,36.43
2023-05-04T11:27:26.114Z,38.47
2023-05-04T11:29:56.805Z,37.75
2023-05-04T11:32:34.891Z,36.12
2023-05-04T11:35:02.326Z,34.04
2023-05-04T11:37:29.820Z,34.26
2023-05-04T11:39:58.106Z,36.16
2023-05-04T11:42:24.860Z,34.21
2023-05-04T11:44:52.470Z,36.24
2023-05-04T11:47:19.390Z,36.66
2023-05-04T11:49:47.551Z,33.99
2023-05-04T11:52:14.505Z,34.86
2023-05-04T11:54:42.065Z,36.29
2023-05-04T11:57:09.094Z,35.98
2023-05-04T11:59:36.077Z,37.04
2023-05-04T12:02:03.181Z,35.40
2023-05-04T12:04:33.297Z,36.86
2023-05-04T12:07:01.822Z,35.11
2023-05-04T12:09:28.722Z,35.20
2023-05-04T12:11:58.408Z,35.85
2023-05-04T12:14:28.267Z,37.40
2023-05-04T12:16:56.160Z,37.74
2023-05-04T12:19:23.125Z,36.47
2023-05-04T12:21:52.277Z,36.54
2023-05-04T12:24:22.350Z,33.60
2023-05-04T12:26:49.732Z,34.25
2023-05-04T12:29:16.753Z,35.06
2023-05-04T12:31:43.684Z,36.45
2023-05-04T12:34:10.576Z,36.14
2023-05-04T12:36:37.278Z,36.82
2023-05-04T12:39:04.166Z,37.06
2023-05-04T12:41:31.592Z,37.88
2023-05-04T12:43:58.532Z,37.38
2023-05-04T12:46:25.678Z,39.61
2023-05-04T12:48:52.485Z,38.66
2023-05-04T12:51:19.255Z,38.72
2023-05-04T12:53:46.131Z,40.04
2023-05-04T12:56:12.803Z,39.84
2023-05-04T12:58:39.628Z,40.71
2023-05-04T13:01:06.362Z,41.27
2023-05-04T13:03:33.554Z,41.98
2023-05-04T13:06:00.384Z,41.03
2023-05-04T13:08:27.130Z,40.90
2023-05-04T13:10:53.813Z,40.26
2023-05-04T13:13:23.379Z,41.74
2023-05-04T13:15:50.722Z,42.18
2023-05-04T13:18:17.557Z,42.99
2023-05-04T13:20:44.429Z,39.03
2023-05-04T13:23:11.485Z,40.15
2023-05-04T13:25:38.279Z,38.65
2023-05-04T13:28:05.042Z,41.11
2023-05-04T13:30:34.679Z,39.86
2023-05-04T13:33:05.562Z,42.59
2023-05-04T13:35:37.545Z,39.38
2023-05-04T13:38:04.284Z,40.65
2023-05-04T13:40:31.467Z,39.33
2023-05-04T13:42:58.341Z,39.66
2023-05-04T13:45:25.698Z,39.27
2023-05-04T13:47:53.608Z,38.61
2023-05-04T13:50:20.540Z,42.62
2023-05-04T13:52:47.722Z,42.35
2023-05-04T13:55:16.601Z,41.58
2023-05-04T13:57:43.419Z,42.10
2023-05-04T14:00:11.148Z,42.06
2023-05-04T14:02:38.070Z,43.23
2023-05-04T14:05:05.308Z,41.65
2023-05-04T14:07:34.689Z,39.46
2023-05-04T14:10:01.854Z,40.42
2023-05-04T14:12:28.923Z,41.78
2023-05-04T14:14:55.895Z,41.69
2023-05-04T14:17:23.038Z,42.72
2023-05-04T14:19:49.921Z,40.79
2023-05-04T14:22:16.737Z,38.62
2023-05-04T14:24:43.624Z,34.41
2023-05-04T14:27:10.406Z,32.88
2023-05-04T14:29:37.186Z,34.11
2023-05-04T14:32:04.537Z,32.66
2023-05-04T14:34:31.342Z,32.52
2023-05-04T14:36:58.129Z,32.84
2023-05-04T14:39:25.013Z,32.65
2023-05-04T14:41:53.314Z,31.75
2023-05-04T14:44:22.611Z,32.99
2023-05-04T14:46:49.465Z,32.95
2023-05-04T14:49:28.348Z,33.15
2023-05-04T14:52:03.335Z,33.84
2023-05-04T14:54:30.010Z,34.65
2023-05-04T14:56:56.785Z,33.77
2023-05-04T14:59:23.543Z,34.53
2023-05-04T15:01:50.413Z,34.83
2023-05-04T15:04:17.659Z,35.11
2023-05-04T15:06:44.542Z,37.54
2023-05-04T15:09:11.560Z,37.01
2023-05-04T15:11:38.733Z,39.17
2023-05-04T15:14:05.625Z,39.25
2023-05-04T15:16:33.294Z,43.71
2023-05-04T15:19:00.987Z,44.44
2023-05-04T15:21:28.167Z,45.09
2023-05-04T15:23:55.296Z,43.94
2023-05-04T15:26:22.376Z,45.26
2023-05-04T15:28:49.574Z,47.18
2023-05-04T15:31:19.915Z,48.66
2023-05-04T15:33:48.816Z,49.32
2023-05-04T15:36:15.743Z,51.03
2023-05-04T15:38:43.761Z,52.53
2023-05-04T15:41:11.061Z,54.15
2023-05-04T15:43:37.910Z,54.96
2023-05-04T15:46:04.637Z,57.12
2023-05-04T15:48:31.393Z,57.77
2023-05-04T15:50:58.157Z,58.19
2023-05-04T15:53:24.951Z,59.05
2023-05-04T15:55:51.762Z,60.31
2023-05-04T15:58:18.693Z,59.16
2023-05-04T16:00:46.118Z,58.46
2023-05-04T16:03:12.964Z,57.32
2023-05-04T16:05:39.801Z,58.35
2023-05-04T16:08:06.577Z,57.80
2023-05-04T16:10:34.334Z,57.15
2023-05-04T16:13:04.003Z,58.37
2023-05-04T16:15:31.237Z,57.96
2023-05-04T16:17:58.144Z,58.63
2023-05-04T16:20:25.936Z,57.88
2023-05-04T16:22:52.714Z,56.79
2023-05-04T16:25:19.699Z,56.60
2023-05-04T16:27:46.780Z,57.82
2023-05-04T16:30:15.471Z,58.63
2023-05-04T16:32:42.261Z,57.81
2023-05-04T16:35:09.459Z,58.90
2023-05-04T16:37:37.827Z,59.02
2023-05-04T16:40:15.170Z,60.04
2023-05-04T16:42:43.009Z,60.11
2023-05-04T16:45:13.911Z,60.86
2023-05-04T16:47:42.247Z,61.12
2023-05-04T16:50:13.303Z,61.10
2023-05-04T16:52:40.306Z,61.15
2023-05-04T16:55:10.677Z,61.66
2023-05-04T16:57:38.975Z,61.49
2023-05-04T17:00:07.137Z,61.52
2023-05-04T17:02:35.211Z,62.02
2023-05-04T17:05:02.105Z,61.38
2023-05-04T17:07:28.861Z,61.57
2023-05-04T17:09:55.571Z,62.43
2023-05-04T17:12:23.354Z,62.64
2023-05-04T17:14:50.334Z,62.13
2023-05-04T17:17:17.109Z,63.32
2023-05-04T17:19:43.858Z,65.04
2023-05-04T17:22:11.357Z,62.26
2023-05-04T17:24:38.168Z,60.70
2023-05-04T17:27:04.913Z,59.23
2023-05-04T17:29:31.697Z,58.58
2023-05-04T17:31:58.605Z,57.09
2023-05-04T17:34:25.473Z,55.27
2023-05-04T17:36:52.478Z,53.75
2023-05-04T17:39:19.473Z,52.49
2023-05-04T17:41:49.114Z,49.67
2023-05-04T17:44:16.425Z,48.89
2023-05-04T17:46:43.588Z,49.02
2023-05-04T17:49:10.901Z,50.04
2023-05-04T17:51:39.155Z,50.58
2023-05-04T17:54:06.020Z,50.35
2023-05-04T17:56:32.856Z,51.16
2023-05-04T17:58:59.589Z,51.06
2023-05-04T18:01:26.827Z,50.61
2023-05-04T18:03:53.627Z,50.49
2023-05-04T18:06:20.406Z,52.11
2023-05-04T18:08:47.129Z,51.79
2023-05-04T18:11:14.011Z,50.11
2023-05-04T18:13:40.876Z,49.08
2023-05-04T18:16:07.867Z,48.70
2023-05-04T18:18:34.692Z,46.93
2023-05-04T18:21:01.493Z,44.63
2023-05-04T18:23:29.124Z,44.83
2023-05-04T18:25:56.040Z,44.15
2023-05-04T18:28:22.968Z,44.11
2023-05-04T18:30:49.781Z,44.15
2023-05-04T18:33:16.732Z,44.10
2023-05-04T18:35:43.496Z,44.45
2023-05-04T18:38:10.594Z,44.16
2023-05-04T18:40:37.291Z,44.15
2023-05-04T18:43:04.154Z,44.59
2023-05-04T18:45:31.496Z,44.61
2023-05-04T18:47:58.463Z,44.97
2023-05-04T18:50:25.336Z,44.98
2023-05-04T18:52:53.995Z,45.12
2023-05-04T18:55:20.959Z,45.12
2023-05-04T18:57:47.711Z,45.39
2023-05-04T19:00:15.193Z,45.86
2023-05-04T19:02:41.952Z,45.89
2023-05-04T19:05:10.814Z,45.51
2023-05-04T19:07:39.133Z,45.67
2023-05-04T19:10:07.260Z,45.68
2023-05-04T19:12:34.307Z,46.42
2023-05-04T19:15:01.344Z,47.42
2023-05-04T19:17:28.488Z,47.54
2023-05-04T19:19:55.366Z,48.37
2023-05-04T19:22:22.245Z,49.64
2023-05-04T19:24:52.184Z,49.44
2023-05-04T19:27:19.269Z,49.53
2023-05-04T19:29:46.622Z,50.42
2023-05-04T19:32:23.412Z,50.61
2023-05-04T19:34:52.171Z,51.73
2023-05-04T19:37:18.873Z,51.85
2023-05-04T19:39:45.865Z,52.52
2023-05-04T19:42:12.536Z,52.69
2023-05-04T19:44:39.387Z,52.98
2023-05-04T19:47:06.722Z,53.62
2023-05-04T19:49:33.666Z,54.09
2023-05-04T19:52:00.801Z,53.91
2023-05-04T19:54:27.537Z,54.21
2023-05-04T19:56:54.293Z,54.55
2023-05-04T19:59:21.034Z,54.64
2023-05-04T20:01:47.985Z,54.68
2023-05-04T20:04:15.072Z,55.09
2023-05-04T20:06:41.932Z,55.39
2023-05-04T20:09:08.709Z,56.29
2023-05-04T20:11:36.321Z,57.07
2023-05-04T20:14:03.198Z,57.81
2023-05-04T20:16:29.996Z,58.49
2023-05-04T20:18:56.867Z,59.37
2023-05-04T20:21:24.362Z,59.29
2023-05-04T20:23:51.083Z,59.99
2023-05-04T20:26:17.912Z,60.40
2023-05-04T20:28:44.701Z,60.75
2023-05-04T20:31:12.215Z,60.73
2023-05-04T20:33:39.123Z,61.22
2023-05-04T20:36:07.082Z,61.66
2023-05-04T20:38:34.235Z,61.59
2023-05-04T20:41:08.241Z,62.28
2023-05-04T20:43:36.153Z,62.44
2023-05-04T20:46:04.252Z,63.40
2023-05-04T20:48:31.727Z,63.33
2023-05-04T20:51:12.696Z,63.81
2023-05-04T20:53:41.255Z,64.03
2023-05-04T20:56:08.040Z,64.87
2023-05-04T20:58:34.851Z,65.40
2023-05-04T21:01:05.487Z,66.27
2023-05-04T21:03:33.013Z,66.71
2023-05-04T21:06:01.519Z,66.92
2023-05-04T21:08:28.586Z,68.11
2023-05-04T21:10:55.556Z,67.62
2023-05-04T21:13:22.403Z,68.07
2023-05-04T21:15:49.180Z,69.45
2023-05-04T21:18:16.039Z,69.71
2023-05-04T21:20:42.754Z,69.71
2023-05-04T21:23:09.620Z,71.45
2023-05-04T21:25:36.336Z,71.78
2023-05-04T21:28:03.604Z,72.85
2023-05-04T21:30:30.302Z,73.48
2023-05-04T21:32:57.161Z,74.31
2023-05-04T21:35:24.561Z,74.92
2023-05-04T21:37:51.335Z,75.44
2023-05-04T21:40:18.165Z,76.01
2023-05-04T21:42:44.849Z,76.28
2023-05-04T21:45:11.778Z,78.34
2023-05-04T21:47:38.698Z,78.93
2023-05-04T21:50:06.415Z,79.11
2023-05-04T21:52:33.340Z,79.79
2023-05-04T21:55:00.169Z,80.62
2023-05-04T21:57:27.657Z,81.88
2023-05-04T21:59:54.382Z,81.25
2023-05-04T22:02:21.214Z,82.50
2023-05-04T22:04:47.924Z,82.38
2023-05-04T22:07:15.875Z,83.29
2023-05-04T22:09:42.739Z,84.12
2023-05-04T22:12:09.597Z,84.55
2023-05-04T22:14:36.343Z,85.86
2023-05-04T22:17:03.274Z,86.63
2023-05-04T22:19:30.124Z,86.67
2023-05-04T22:21:56.972Z,86.48
2023-05-04T22:24:23.745Z,86.46
2023-05-04T22:26:50.916Z,87.36
2023-05-04T22:29:17.730Z,87.87
2023-05-04T22:31:44.477Z,88.46
2023-05-04T22:34:11.200Z,88.38
2023-05-04T22:36:37.955Z,89.44
2023-05-04T22:39:04.760Z,89.71
2023-05-04T22:41:31.572Z,90.06
2023-05-04T22:43:58.329Z,90.69
2023-05-04T22:46:25.701Z,91.34
2023-05-04T22:48:52.685Z,92.92
2023-05-04T22:51:19.443Z,95.22
2023-05-04T22:53:46.230Z,96.10
2023-05-04T22:56:13.082Z,96.70
2023-05-04T22:58:39.886Z,96.19
2023-05-04T23:01:10.522Z,96.55
2023-05-04T23:03:38.283Z,98.20
2023-05-04T23:06:05.672Z,99.29
2023-05-04T23:08:32.486Z,100.01
2023-05-04T23:10:59.389Z,99.88
2023-05-04T23:13:26.206Z,100.03
2023-05-04T23:15:53.242Z,100.99
2023-05-04T23:18:20.046Z,102.91
2023-05-04T23:20:46.798Z,102.89
2023-05-04T23:23:13.739Z,103.09
2023-05-04T23:25:40.475Z,102.80
2023-05-04T23:28:07.320Z,102.81
2023-05-04T23:30:34.029Z,103.24
2023-05-04T23:33:00.772Z,103.65
2023-05-04T23:35:28.221Z,103.53
2023-05-04T23:37:54.973Z,103.82
2023-05-04T23:40:21.874Z,104.33
2023-05-04T23:42:50.419Z,104.57
2023-05-04T23:45:17.313Z,104.67
2023-05-04T23:47:44.211Z,104.40
2023-05-04T23:50:11.682Z,105.08
2023-05-04T23:52:38.553Z,105.49
2023-05-04T23:55:06.454Z,105.66
2023-05-04T23:57:33.192Z,105.37
2023-05-04T23:59:59.958Z,105.10
